sensor_id;sensor_type;location;lat;lon;timestamp;temperature;humidity
10390;DHT22;5241;47.830;12.972;2022-12-10T00:01:49;0.80;99.90
10390;DHT22;5241;47.830;12.972;2022-12-10T00:04:15;0.80;99.90
10390;DHT22;5241;47.830;12.972;2022-12-10T00:06:42;0.80;99.90
10390;DHT22;5241;47.830;12.972;2022-12-10T00:09:11;0.90;99.90
10390;DHT22;5241;47.830;12.972;2022-12-10T00:11:38;0.90;99.90
10390;DHT22;5241;47.830;12.972;2022-12-10T00:14:04;0.80;99.90
10390;DHT22;5241;47.830;12.972;2022-12-10T00:16:29;0.80;99.90
10390;DHT22;5241;47.830;12.972;2022-12-10T00:18:59;0.80;99.90
10390;DHT22;5241;47.830;12.972;2022-12-10T00:21:27;0.80;99.90
10390;DHT22;5241;47.830;12.972;2022-12-10T00:23:53;0.80;99.90
10390;DHT22;5241;47.830;12.972;2022-12-10T00:26:25;0.80;99.90
10390;DHT22;5241;47.830;12.972;2022-12-10T00:28:51;0.80;99.90
10390;DHT22;5241;47.830;12.972;2022-12-10T00:31:20;0.80;99.90
10390;DHT22;5241;47.830;12.972;2022-12-10T00:33:47;0.80;99.90
10390;DHT22;5241;47.830;12.972;2022-12-10T00:36:19;0.80;99.90
10390;DHT22;5241;47.830;12.972;2022-12-10T00:38:46;0.80;99.90
10390;DHT22;5241;47.830;12.972;2022-12-10T00:41:13;0.80;99.90
10390;DHT22;5241;47.830;12.972;2022-12-10T00:43:39;0.80;99.90
10390;DHT22;5241;47.830;12.972;2022-12-10T00:46:05;0.80;99.90
10390;DHT22;5241;47.830;12.972;2022-12-10T00:48:31;0.80;99.90
10390;DHT22;5241;47.830;12.972;2022-12-10T00:51:00;0.80;99.90
10390;DHT22;5241;47.830;12.972;2022-12-10T00:53:27;0.80;99.90
10390;DHT22;5241;47.830;12.972;2022-12-10T00:55:53;0.80;99.90
10390;DHT22;5241;47.830;12.972;2022-12-10T00:58:19;0.70;99.90
10390;DHT22;5241;47.830;12.972;2022-12-10T01:00:45;0.70;99.90
10390;DHT22;5241;47.830;12.972;2022-12-10T01:03:11;0.80;99.90
10390;DHT22;5241;47.830;12.972;2022-12-10T01:05:36;0.80;99.90
10390;DHT22;5241;47.830;12.972;2022-12-10T01:08:02;0.70;99.90
10390;DHT22;5241;47.830;12.972;2022-12-10T01:10:27;0.80;99.90
10390;DHT22;5241;47.830;12.972;2022-12-10T01:12:53;0.70;99.90
10390;DHT22;5241;47.830;12.972;2022-12-10T01:15:18;0.80;99.90
10390;DHT22;5241;47.830;12.972;2022-12-10T01:17:44;0.80;99.90
10390;DHT22;5241;47.830;12.972;2022-12-10T01:20:10;0.80;99.90
10390;DHT22;5241;47.830;12.972;2022-12-10T01:22:36;0.80;99.90
10390;DHT22;5241;47.830;12.972;2022-12-10T01:25:01;0.80;99.90
10390;DHT22;5241;47.830;12.972;2022-12-10T01:27:27;0.80;99.90
10390;DHT22;5241;47.830;12.972;2022-12-10T01:29:52;0.80;99.90
10390;DHT22;5241;47.830;12.972;2022-12-10T01:32:18;0.80;99.90
10390;DHT22;5241;47.830;12.972;2022-12-10T01:34:43;0.80;99.90
10390;DHT22;5241;47.830;12.972;2022-12-10T01:37:09;0.80;99.90
10390;DHT22;5241;47.830;12.972;2022-12-10T01:39:35;0.80;99.90
10390;DHT22;5241;47.830;12.972;2022-12-10T01:42:00;0.80;99.90
10390;DHT22;5241;47.830;12.972;2022-12-10T01:46:57;0.80;99.90
10390;DHT22;5241;47.830;12.972;2022-12-10T01:51:55;0.80;99.90
10390;DHT22;5241;47.830;12.972;2022-12-10T01:54:24;0.80;99.90
10390;DHT22;5241;47.830;12.972;2022-12-10T01:57:00;0.80;99.90
10390;DHT22;5241;47.830;12.972;2022-12-10T01:59:28;0.80;99.90
10390;DHT22;5241;47.830;12.972;2022-12-10T02:05:02;0.80;99.90
10390;DHT22;5241;47.830;12.972;2022-12-10T02:15:30;0.80;99.90
10390;DHT22;5241;47.830;12.972;2022-12-10T02:18:05;0.80;99.90
10390;DHT22;5241;47.830;12.972;2022-12-10T02:20:43;0.80;99.90
10390;DHT22;5241;47.830;12.972;2022-12-10T02:23:18;0.80;99.90
10390;DHT22;5241;47.830;12.972;2022-12-10T02:31:43;0.80;99.90
10390;DHT22;5241;47.830;12.972;2022-12-10T02:34:11;0.70;99.90
10390;DHT22;5241;47.830;12.972;2022-12-10T02:36:39;0.70;99.90
10390;DHT22;5241;47.830;12.972;2022-12-10T02:39:10;0.70;99.90
10390;DHT22;5241;47.830;12.972;2022-12-10T02:41:47;0.80;99.90
10390;DHT22;5241;47.830;12.972;2022-12-10T02:44:14;0.80;99.90
10390;DHT22;5241;47.830;12.972;2022-12-10T02:46:43;0.80;99.90
10390;DHT22;5241;47.830;12.972;2022-12-10T02:49:12;0.70;99.90
10390;DHT22;5241;47.830;12.972;2022-12-10T02:51:39;0.70;99.90
10390;DHT22;5241;47.830;12.972;2022-12-10T02:54:06;0.70;99.90
10390;DHT22;5241;47.830;12.972;2022-12-10T02:56:54;0.70;99.90
10390;DHT22;5241;47.830;12.972;2022-12-10T02:59:27;0.70;99.90
10390;DHT22;5241;47.830;12.972;2022-12-10T03:07:10;0.70;99.90
10390;DHT22;5241;47.830;12.972;2022-12-10T03:09:40;0.70;99.90
10390;DHT22;5241;47.830;12.972;2022-12-10T03:12:31;0.80;99.90
10390;DHT22;5241;47.830;12.972;2022-12-10T03:15:00;0.80;99.90
10390;DHT22;5241;47.830;12.972;2022-12-10T03:17:29;0.80;99.90
10390;DHT22;5241;47.830;12.972;2022-12-10T03:19:57;0.80;99.90
10390;DHT22;5241;47.830;12.972;2022-12-10T03:22:24;0.80;99.90
10390;DHT22;5241;47.830;12.972;2022-12-10T03:24:50;0.80;99.90
10390;DHT22;5241;47.830;12.972;2022-12-10T03:27:19;0.80;99.90
10390;DHT22;5241;47.830;12.972;2022-12-10T03:29:48;0.80;99.90
10390;DHT22;5241;47.830;12.972;2022-12-10T03:32:15;0.80;99.90
10390;DHT22;5241;47.830;12.972;2022-12-10T03:34:43;0.80;99.90
10390;DHT22;5241;47.830;12.972;2022-12-10T03:37:10;0.70;99.90
10390;DHT22;5241;47.830;12.972;2022-12-10T03:39:36;0.70;99.90
10390;DHT22;5241;47.830;12.972;2022-12-10T03:42:04;0.70;99.90
10390;DHT22;5241;47.830;12.972;2022-12-10T03:44:35;0.70;99.90
10390;DHT22;5241;47.830;12.972;2022-12-10T03:47:03;0.70;99.90
10390;DHT22;5241;47.830;12.972;2022-12-10T03:49:30;0.70;99.90
10390;DHT22;5241;47.830;12.972;2022-12-10T03:51:55;0.80;99.90
10390;DHT22;5241;47.830;12.972;2022-12-10T03:54:21;0.80;99.90
10390;DHT22;5241;47.830;12.972;2022-12-10T03:56:47;0.80;99.90
10390;DHT22;5241;47.830;12.972;2022-12-10T03:59:12;0.80;99.90
10390;DHT22;5241;47.830;12.972;2022-12-10T04:01:38;0.80;99.90
10390;DHT22;5241;47.830;12.972;2022-12-10T04:04:04;0.70;99.90
10390;DHT22;5241;47.830;12.972;2022-12-10T04:06:30;0.70;99.90
10390;DHT22;5241;47.830;12.972;2022-12-10T04:08:56;0.70;99.90
10390;DHT22;5241;47.830;12.972;2022-12-10T04:11:22;0.70;99.90
10390;DHT22;5241;47.830;12.972;2022-12-10T04:13:48;0.70;99.90
10390;DHT22;5241;47.830;12.972;2022-12-10T04:16:34;0.70;99.90
10390;DHT22;5241;47.830;12.972;2022-12-10T04:19:05;0.80;99.90
10390;DHT22;5241;47.830;12.972;2022-12-10T04:21:33;0.80;99.90
10390;DHT22;5241;47.830;12.972;2022-12-10T04:24:20;0.80;99.90
10390;DHT22;5241;47.830;12.972;2022-12-10T04:27:10;0.80;99.90
10390;DHT22;5241;47.830;12.972;2022-12-10T04:29:36;0.80;99.90
10390;DHT22;5241;47.830;12.972;2022-12-10T04:32:02;0.80;99.90
10390;DHT22;5241;47.830;12.972;2022-12-10T04:34:28;0.80;99.90
10390;DHT22;5241;47.830;12.972;2022-12-10T04:36:54;0.70;99.90
10390;DHT22;5241;47.830;12.972;2022-12-10T04:39:19;0.80;99.90
10390;DHT22;5241;47.830;12.972;2022-12-10T04:41:47;0.80;99.90
10390;DHT22;5241;47.830;12.972;2022-12-10T04:44:13;0.70;99.90
10390;DHT22;5241;47.830;12.972;2022-12-10T04:46:38;0.70;99.90
10390;DHT22;5241;47.830;12.972;2022-12-10T04:49:05;0.70;99.90
10390;DHT22;5241;47.830;12.972;2022-12-10T04:51:31;0.70;99.90
10390;DHT22;5241;47.830;12.972;2022-12-10T04:53:57;0.70;99.90
10390;DHT22;5241;47.830;12.972;2022-12-10T04:56:23;0.80;99.90
10390;DHT22;5241;47.830;12.972;2022-12-10T04:58:49;0.80;99.90
10390;DHT22;5241;47.830;12.972;2022-12-10T05:01:14;0.70;99.90
10390;DHT22;5241;47.830;12.972;2022-12-10T05:03:40;0.70;99.90
10390;DHT22;5241;47.830;12.972;2022-12-10T05:06:09;0.70;99.90
10390;DHT22;5241;47.830;12.972;2022-12-10T05:08:36;0.70;99.90
10390;DHT22;5241;47.830;12.972;2022-12-10T05:11:08;0.70;99.90
10390;DHT22;5241;47.830;12.972;2022-12-10T05:13:34;0.70;99.90
10390;DHT22;5241;47.830;12.972;2022-12-10T05:16:04;0.70;99.90
10390;DHT22;5241;47.830;12.972;2022-12-10T05:18:30;0.70;99.90
10390;DHT22;5241;47.830;12.972;2022-12-10T05:21:00;0.70;99.90
10390;DHT22;5241;47.830;12.972;2022-12-10T05:23:25;0.70;99.90
10390;DHT22;5241;47.830;12.972;2022-12-10T05:26:04;0.70;99.90
10390;DHT22;5241;47.830;12.972;2022-12-10T05:28:33;0.70;99.90
10390;DHT22;5241;47.830;12.972;2022-12-10T05:30:59;0.70;99.90
10390;DHT22;5241;47.830;12.972;2022-12-10T05:33:25;0.70;99.90
10390;DHT22;5241;47.830;12.972;2022-12-10T05:36:02;0.70;99.90
10390;DHT22;5241;47.830;12.972;2022-12-10T05:38:29;0.70;99.90
10390;DHT22;5241;47.830;12.972;2022-12-10T05:40:55;0.80;99.90
10390;DHT22;5241;47.830;12.972;2022-12-10T05:43:25;0.70;99.90
10390;DHT22;5241;47.830;12.972;2022-12-10T05:45:51;0.70;99.90
10390;DHT22;5241;47.830;12.972;2022-12-10T05:48:16;0.70;99.90
10390;DHT22;5241;47.830;12.972;2022-12-10T05:50:42;0.70;99.90
10390;DHT22;5241;47.830;12.972;2022-12-10T05:53:07;0.70;99.90
10390;DHT22;5241;47.830;12.972;2022-12-10T05:55:33;0.70;99.90
10390;DHT22;5241;47.830;12.972;2022-12-10T05:57:59;0.70;99.90
10390;DHT22;5241;47.830;12.972;2022-12-10T06:00:26;0.70;99.90
10390;DHT22;5241;47.830;12.972;2022-12-10T06:02:52;0.70;99.90
10390;DHT22;5241;47.830;12.972;2022-12-10T06:05:19;0.70;99.90
10390;DHT22;5241;47.830;12.972;2022-12-10T06:07:44;0.70;99.90
10390;DHT22;5241;47.830;12.972;2022-12-10T06:10:11;0.70;99.90
10390;DHT22;5241;47.830;12.972;2022-12-10T06:12:37;0.70;99.90
10390;DHT22;5241;47.830;12.972;2022-12-10T06:15:04;0.70;99.90
10390;DHT22;5241;47.830;12.972;2022-12-10T06:17:30;0.70;99.90
10390;DHT22;5241;47.830;12.972;2022-12-10T06:19:56;0.70;99.90
10390;DHT22;5241;47.830;12.972;2022-12-10T06:22:21;0.70;99.90
10390;DHT22;5241;47.830;12.972;2022-12-10T06:24:47;0.70;99.90
10390;DHT22;5241;47.830;12.972;2022-12-10T06:27:12;0.70;99.90
10390;DHT22;5241;47.830;12.972;2022-12-10T06:29:38;0.70;99.90
10390;DHT22;5241;47.830;12.972;2022-12-10T06:32:03;0.70;99.90
10390;DHT22;5241;47.830;12.972;2022-12-10T06:34:29;0.70;99.90
10390;DHT22;5241;47.830;12.972;2022-12-10T06:36:55;0.70;99.90
10390;DHT22;5241;47.830;12.972;2022-12-10T06:39:20;0.70;99.90
10390;DHT22;5241;47.830;12.972;2022-12-10T06:41:46;0.70;99.90
10390;DHT22;5241;47.830;12.972;2022-12-10T06:44:12;0.70;99.90
10390;DHT22;5241;47.830;12.972;2022-12-10T06:46:39;0.70;99.90
10390;DHT22;5241;47.830;12.972;2022-12-10T06:49:06;0.70;99.90
10390;DHT22;5241;47.830;12.972;2022-12-10T06:51:32;0.80;99.90
10390;DHT22;5241;47.830;12.972;2022-12-10T06:53:58;0.80;99.90
10390;DHT22;5241;47.830;12.972;2022-12-10T06:56:23;0.80;99.90
10390;DHT22;5241;47.830;12.972;2022-12-10T06:58:49;0.80;99.90
10390;DHT22;5241;47.830;12.972;2022-12-10T07:01:23;0.80;99.90
10390;DHT22;5241;47.830;12.972;2022-12-10T07:03:52;0.80;99.90
10390;DHT22;5241;47.830;12.972;2022-12-10T07:06:19;0.70;99.90
10390;DHT22;5241;47.830;12.972;2022-12-10T07:08:45;0.80;99.90
10390;DHT22;5241;47.830;12.972;2022-12-10T07:11:14;0.80;99.90
10390;DHT22;5241;47.830;12.972;2022-12-10T07:13:40;0.80;99.90
10390;DHT22;5241;47.830;12.972;2022-12-10T07:16:23;0.80;99.90
10390;DHT22;5241;47.830;12.972;2022-12-10T07:18:51;0.80;99.90
10390;DHT22;5241;47.830;12.972;2022-12-10T07:21:21;0.80;99.90
10390;DHT22;5241;47.830;12.972;2022-12-10T07:23:47;0.80;99.90
10390;DHT22;5241;47.830;12.972;2022-12-10T07:26:13;0.80;99.90
10390;DHT22;5241;47.830;12.972;2022-12-10T07:28:39;0.80;99.90
10390;DHT22;5241;47.830;12.972;2022-12-10T07:31:07;0.80;99.90
10390;DHT22;5241;47.830;12.972;2022-12-10T07:33:33;0.80;99.90
10390;DHT22;5241;47.830;12.972;2022-12-10T07:36:02;0.80;99.90
10390;DHT22;5241;47.830;12.972;2022-12-10T07:38:28;0.80;99.90
10390;DHT22;5241;47.830;12.972;2022-12-10T07:40:53;0.80;99.90
10390;DHT22;5241;47.830;12.972;2022-12-10T07:43:19;0.90;99.90
10390;DHT22;5241;47.830;12.972;2022-12-10T07:45:44;1.00;99.90
10390;DHT22;5241;47.830;12.972;2022-12-10T07:48:10;1.00;99.90
10390;DHT22;5241;47.830;12.972;2022-12-10T07:50:35;1.00;99.90
10390;DHT22;5241;47.830;12.972;2022-12-10T07:53:01;1.00;99.90
10390;DHT22;5241;47.830;12.972;2022-12-10T07:55:27;1.00;99.90
10390;DHT22;5241;47.830;12.972;2022-12-10T07:57:52;1.00;99.90
10390;DHT22;5241;47.830;12.972;2022-12-10T08:00:18;1.00;99.90
10390;DHT22;5241;47.830;12.972;2022-12-10T08:02:44;1.10;99.90
10390;DHT22;5241;47.830;12.972;2022-12-10T08:05:09;1.00;99.90
10390;DHT22;5241;47.830;12.972;2022-12-10T08:07:35;1.00;99.90
10390;DHT22;5241;47.830;12.972;2022-12-10T08:10:01;1.00;99.90
10390;DHT22;5241;47.830;12.972;2022-12-10T08:12:26;1.10;99.90
10390;DHT22;5241;47.830;12.972;2022-12-10T08:14:52;1.10;99.90
10390;DHT22;5241;47.830;12.972;2022-12-10T08:17:17;1.00;99.90
10390;DHT22;5241;47.830;12.972;2022-12-10T08:19:43;1.10;99.90
10390;DHT22;5241;47.830;12.972;2022-12-10T08:22:08;1.10;99.90
10390;DHT22;5241;47.830;12.972;2022-12-10T08:24:34;1.10;99.90
10390;DHT22;5241;47.830;12.972;2022-12-10T08:27:00;1.10;99.90
10390;DHT22;5241;47.830;12.972;2022-12-10T08:29:25;1.10;99.90
10390;DHT22;5241;47.830;12.972;2022-12-10T08:31:51;1.20;99.90
10390;DHT22;5241;47.830;12.972;2022-12-10T08:34:18;1.20;99.90
10390;DHT22;5241;47.830;12.972;2022-12-10T08:36:44;1.20;99.90
10390;DHT22;5241;47.830;12.972;2022-12-10T08:39:10;1.20;99.90
10390;DHT22;5241;47.830;12.972;2022-12-10T08:41:40;1.20;99.90
10390;DHT22;5241;47.830;12.972;2022-12-10T08:44:06;1.20;99.90
10390;DHT22;5241;47.830;12.972;2022-12-10T08:46:32;1.20;99.90
10390;DHT22;5241;47.830;12.972;2022-12-10T08:48:58;1.10;99.90
10390;DHT22;5241;47.830;12.972;2022-12-10T08:51:24;1.10;99.90
10390;DHT22;5241;47.830;12.972;2022-12-10T08:53:50;1.10;99.90
10390;DHT22;5241;47.830;12.972;2022-12-10T08:56:15;1.10;99.90
10390;DHT22;5241;47.830;12.972;2022-12-10T08:58:41;1.20;99.90
10390;DHT22;5241;47.830;12.972;2022-12-10T09:01:14;1.10;99.90
10390;DHT22;5241;47.830;12.972;2022-12-10T09:03:40;1.10;99.90
10390;DHT22;5241;47.830;12.972;2022-12-10T09:06:08;1.20;99.90
10390;DHT22;5241;47.830;12.972;2022-12-10T09:08:35;1.20;99.90
10390;DHT22;5241;47.830;12.972;2022-12-10T09:11:15;1.30;99.90
10390;DHT22;5241;47.830;12.972;2022-12-10T09:13:41;1.30;99.90
10390;DHT22;5241;47.830;12.972;2022-12-10T09:16:09;1.30;99.90
10390;DHT22;5241;47.830;12.972;2022-12-10T09:18:34;1.30;99.90
10390;DHT22;5241;47.830;12.972;2022-12-10T09:21:04;1.40;99.90
10390;DHT22;5241;47.830;12.972;2022-12-10T09:23:30;1.50;99.90
10390;DHT22;5241;47.830;12.972;2022-12-10T09:25:55;1.40;99.90
10390;DHT22;5241;47.830;12.972;2022-12-10T09:28:21;1.40;99.90
10390;DHT22;5241;47.830;12.972;2022-12-10T09:30:55;1.40;99.90
10390;DHT22;5241;47.830;12.972;2022-12-10T09:33:22;1.40;99.90
10390;DHT22;5241;47.830;12.972;2022-12-10T09:35:47;1.30;99.90
10390;DHT22;5241;47.830;12.972;2022-12-10T09:38:13;1.40;99.90
10390;DHT22;5241;47.830;12.972;2022-12-10T09:40:43;1.40;99.90
10390;DHT22;5241;47.830;12.972;2022-12-10T09:43:19;1.30;99.90
10390;DHT22;5241;47.830;12.972;2022-12-10T09:45:54;1.30;99.90
10390;DHT22;5241;47.830;12.972;2022-12-10T09:48:46;1.30;99.90
10390;DHT22;5241;47.830;12.972;2022-12-10T09:51:24;1.30;99.90
10390;DHT22;5241;47.830;12.972;2022-12-10T09:53:52;1.30;99.90
10390;DHT22;5241;47.830;12.972;2022-12-10T09:56:27;1.40;99.90
10390;DHT22;5241;47.830;12.972;2022-12-10T09:58:54;1.40;99.90
10390;DHT22;5241;47.830;12.972;2022-12-10T10:01:24;1.40;99.90
10390;DHT22;5241;47.830;12.972;2022-12-10T10:03:50;1.40;99.90
10390;DHT22;5241;47.830;12.972;2022-12-10T10:06:16;1.50;99.90
10390;DHT22;5241;47.830;12.972;2022-12-10T10:08:51;1.40;99.90
10390;DHT22;5241;47.830;12.972;2022-12-10T10:11:20;1.40;99.90
10390;DHT22;5241;47.830;12.972;2022-12-10T10:14:10;1.50;99.90
10390;DHT22;5241;47.830;12.972;2022-12-10T10:16:43;1.40;99.90
10390;DHT22;5241;47.830;12.972;2022-12-10T10:19:16;1.40;99.90
10390;DHT22;5241;47.830;12.972;2022-12-10T10:21:45;1.40;99.90
10390;DHT22;5241;47.830;12.972;2022-12-10T10:24:35;1.50;99.90
10390;DHT22;5241;47.830;12.972;2022-12-10T10:27:16;1.50;99.90
10390;DHT22;5241;47.830;12.972;2022-12-10T10:29:48;1.50;99.90
10390;DHT22;5241;47.830;12.972;2022-12-10T10:32:23;1.60;99.90
10390;DHT22;5241;47.830;12.972;2022-12-10T10:34:57;1.50;99.90
10390;DHT22;5241;47.830;12.972;2022-12-10T10:37:25;1.60;99.90
10390;DHT22;5241;47.830;12.972;2022-12-10T10:39:53;1.50;99.90
10390;DHT22;5241;47.830;12.972;2022-12-10T10:42:35;1.60;99.90
10390;DHT22;5241;47.830;12.972;2022-12-10T10:48:04;1.50;99.90
10390;DHT22;5241;47.830;12.972;2022-12-10T10:50:32;1.40;99.90
10390;DHT22;5241;47.830;12.972;2022-12-10T10:53:01;1.50;99.90
10390;DHT22;5241;47.830;12.972;2022-12-10T10:55:31;1.50;99.90
10390;DHT22;5241;47.830;12.972;2022-12-10T10:58:01;1.50;99.90
10390;DHT22;5241;47.830;12.972;2022-12-10T11:00:27;1.50;99.90
10390;DHT22;5241;47.830;12.972;2022-12-10T11:02:53;1.50;99.90
10390;DHT22;5241;47.830;12.972;2022-12-10T11:05:26;1.50;99.90
10390;DHT22;5241;47.830;12.972;2022-12-10T11:07:59;1.50;99.90
10390;DHT22;5241;47.830;12.972;2022-12-10T11:10:26;1.60;99.90
10390;DHT22;5241;47.830;12.972;2022-12-10T11:12:57;1.70;99.90
10390;DHT22;5241;47.830;12.972;2022-12-10T11:15:41;1.70;99.90
10390;DHT22;5241;47.830;12.972;2022-12-10T11:21:04;1.80;99.90
10390;DHT22;5241;47.830;12.972;2022-12-10T11:23:42;1.70;99.90
10390;DHT22;5241;47.830;12.972;2022-12-10T11:29:28;1.60;99.90
10390;DHT22;5241;47.830;12.972;2022-12-10T11:32:07;1.60;99.90
10390;DHT22;5241;47.830;12.972;2022-12-10T11:37:22;1.60;99.90
10390;DHT22;5241;47.830;12.972;2022-12-10T11:50:41;1.60;99.90
10390;DHT22;5241;47.830;12.972;2022-12-10T12:01:30;1.60;99.90
10390;DHT22;5241;47.830;12.972;2022-12-10T12:12:37;1.60;99.90
10390;DHT22;5241;47.830;12.972;2022-12-10T12:15:19;1.70;99.90
10390;DHT22;5241;47.830;12.972;2022-12-10T12:18:01;1.70;99.90
10390;DHT22;5241;47.830;12.972;2022-12-10T12:20:58;1.60;99.90
10390;DHT22;5241;47.830;12.972;2022-12-10T12:25:57;1.70;99.90
10390;DHT22;5241;47.830;12.972;2022-12-10T12:28:39;1.70;99.90
10390;DHT22;5241;47.830;12.972;2022-12-10T12:31:14;1.60;99.90
10390;DHT22;5241;47.830;12.972;2022-12-10T12:33:49;1.60;99.90
10390;DHT22;5241;47.830;12.972;2022-12-10T12:36:24;1.60;99.90
10390;DHT22;5241;47.830;12.972;2022-12-10T12:44:26;1.50;99.90
10390;DHT22;5241;47.830;12.972;2022-12-10T12:46:58;1.50;99.90
10390;DHT22;5241;47.830;12.972;2022-12-10T12:49:33;1.60;99.90
10390;DHT22;5241;47.830;12.972;2022-12-10T12:52:13;1.50;99.90
10390;DHT22;5241;47.830;12.972;2022-12-10T12:54:44;1.50;99.90
10390;DHT22;5241;47.830;12.972;2022-12-10T12:59:58;1.50;99.90
10390;DHT22;5241;47.830;12.972;2022-12-10T13:05:23;1.50;99.90
10390;DHT22;5241;47.830;12.972;2022-12-10T13:13:36;1.30;99.90
10390;DHT22;5241;47.830;12.972;2022-12-10T13:43:20;1.30;99.90
10390;DHT22;5241;47.830;12.972;2022-12-10T13:49:17;1.20;99.90
10390;DHT22;5241;47.830;12.972;2022-12-10T14:00:07;1.20;99.90
10390;DHT22;5241;47.830;12.972;2022-12-10T14:08:36;1.20;99.90
10390;DHT22;5241;47.830;12.972;2022-12-10T14:11:06;1.20;99.90
10390;DHT22;5241;47.830;12.972;2022-12-10T14:13:39;1.20;99.90
10390;DHT22;5241;47.830;12.972;2022-12-10T14:16:10;1.20;99.90
10390;DHT22;5241;47.830;12.972;2022-12-10T14:18:37;1.20;99.90
10390;DHT22;5241;47.830;12.972;2022-12-10T14:21:06;1.20;99.90
10390;DHT22;5241;47.830;12.972;2022-12-10T14:23:33;1.10;99.90
10390;DHT22;5241;47.830;12.972;2022-12-10T14:28:31;1.10;99.90
10390;DHT22;5241;47.830;12.972;2022-12-10T14:30:59;1.10;99.90
10390;DHT22;5241;47.830;12.972;2022-12-10T14:33:24;1.10;99.90
10390;DHT22;5241;47.830;12.972;2022-12-10T14:35:52;1.10;99.90
10390;DHT22;5241;47.830;12.972;2022-12-10T14:38:31;1.10;99.90
10390;DHT22;5241;47.830;12.972;2022-12-10T14:40:58;1.00;99.90
10390;DHT22;5241;47.830;12.972;2022-12-10T14:43:35;1.00;99.90
10390;DHT22;5241;47.830;12.972;2022-12-10T14:46:03;1.00;99.90
10390;DHT22;5241;47.830;12.972;2022-12-10T14:48:29;1.00;99.90
10390;DHT22;5241;47.830;12.972;2022-12-10T14:51:05;1.00;99.90
10390;DHT22;5241;47.830;12.972;2022-12-10T14:53:35;1.00;99.90
10390;DHT22;5241;47.830;12.972;2022-12-10T14:56:05;1.00;99.90
10390;DHT22;5241;47.830;12.972;2022-12-10T14:58:46;0.90;99.90
10390;DHT22;5241;47.830;12.972;2022-12-10T15:01:19;0.90;99.90
10390;DHT22;5241;47.830;12.972;2022-12-10T15:03:48;1.00;99.90
10390;DHT22;5241;47.830;12.972;2022-12-10T15:06:17;1.00;99.90
10390;DHT22;5241;47.830;12.972;2022-12-10T15:08:45;1.00;99.90
10390;DHT22;5241;47.830;12.972;2022-12-10T15:11:19;1.00;99.90
10390;DHT22;5241;47.830;12.972;2022-12-10T15:13:48;0.90;99.90
10390;DHT22;5241;47.830;12.972;2022-12-10T15:16:27;0.90;99.90
10390;DHT22;5241;47.830;12.972;2022-12-10T15:18:53;0.90;99.90
10390;DHT22;5241;47.830;12.972;2022-12-10T15:21:22;0.90;99.90
10390;DHT22;5241;47.830;12.972;2022-12-10T15:23:48;0.90;99.90
10390;DHT22;5241;47.830;12.972;2022-12-10T15:26:27;0.90;99.90
10390;DHT22;5241;47.830;12.972;2022-12-10T15:29:29;0.90;99.90
10390;DHT22;5241;47.830;12.972;2022-12-10T15:31:58;0.90;99.90
10390;DHT22;5241;47.830;12.972;2022-12-10T15:34:27;0.90;99.90
10390;DHT22;5241;47.830;12.972;2022-12-10T15:36:56;0.90;99.90
10390;DHT22;5241;47.830;12.972;2022-12-10T15:39:33;0.90;99.90
10390;DHT22;5241;47.830;12.972;2022-12-10T15:42:05;0.90;99.90
10390;DHT22;5241;47.830;12.972;2022-12-10T15:44:40;0.90;99.90
10390;DHT22;5241;47.830;12.972;2022-12-10T15:47:22;0.90;99.90
10390;DHT22;5241;47.830;12.972;2022-12-10T15:49:49;0.90;99.90
10390;DHT22;5241;47.830;12.972;2022-12-10T15:52:18;0.90;99.90
10390;DHT22;5241;47.830;12.972;2022-12-10T15:54:47;0.90;99.90
10390;DHT22;5241;47.830;12.972;2022-12-10T15:59:45;0.90;99.90
10390;DHT22;5241;47.830;12.972;2022-12-10T16:04:58;0.90;99.90
10390;DHT22;5241;47.830;12.972;2022-12-10T16:07:23;0.90;99.90
10390;DHT22;5241;47.830;12.972;2022-12-10T16:09:49;0.90;99.90
10390;DHT22;5241;47.830;12.972;2022-12-10T16:12:16;0.90;99.90
10390;DHT22;5241;47.830;12.972;2022-12-10T16:14:51;0.90;99.90
10390;DHT22;5241;47.830;12.972;2022-12-10T16:17:20;0.90;99.90
10390;DHT22;5241;47.830;12.972;2022-12-10T16:19:46;0.90;99.90
10390;DHT22;5241;47.830;12.972;2022-12-10T16:22:11;0.90;99.90
10390;DHT22;5241;47.830;12.972;2022-12-10T16:24:37;0.90;99.90
10390;DHT22;5241;47.830;12.972;2022-12-10T16:27:13;0.90;99.90
10390;DHT22;5241;47.830;12.972;2022-12-10T16:29:40;0.90;99.90
10390;DHT22;5241;47.830;12.972;2022-12-10T16:32:09;0.90;99.90
10390;DHT22;5241;47.830;12.972;2022-12-10T16:34:35;0.90;99.90
10390;DHT22;5241;47.830;12.972;2022-12-10T16:37:01;0.90;99.90
10390;DHT22;5241;47.830;12.972;2022-12-10T16:39:26;0.90;99.90
10390;DHT22;5241;47.830;12.972;2022-12-10T16:41:53;0.90;99.90
10390;DHT22;5241;47.830;12.972;2022-12-10T16:44:19;0.90;99.90
10390;DHT22;5241;47.830;12.972;2022-12-10T16:46:45;0.90;99.90
10390;DHT22;5241;47.830;12.972;2022-12-10T16:49:10;0.90;99.90
10390;DHT22;5241;47.830;12.972;2022-12-10T16:51:36;0.90;99.90
10390;DHT22;5241;47.830;12.972;2022-12-10T16:54:02;0.90;99.90
10390;DHT22;5241;47.830;12.972;2022-12-10T16:56:29;0.90;99.90
10390;DHT22;5241;47.830;12.972;2022-12-10T16:58:55;0.90;99.90
10390;DHT22;5241;47.830;12.972;2022-12-10T17:01:26;0.90;99.90
10390;DHT22;5241;47.830;12.972;2022-12-10T17:03:56;0.90;99.90
10390;DHT22;5241;47.830;12.972;2022-12-10T17:06:22;0.90;99.90
10390;DHT22;5241;47.830;12.972;2022-12-10T17:08:48;1.00;99.90
10390;DHT22;5241;47.830;12.972;2022-12-10T17:11:35;1.00;99.90
10390;DHT22;5241;47.830;12.972;2022-12-10T17:14:21;1.00;99.90
10390;DHT22;5241;47.830;12.972;2022-12-10T17:16:48;1.00;99.90
10390;DHT22;5241;47.830;12.972;2022-12-10T17:19:15;0.90;99.90
10390;DHT22;5241;47.830;12.972;2022-12-10T17:21:40;0.90;99.90
10390;DHT22;5241;47.830;12.972;2022-12-10T17:24:06;0.90;99.90
10390;DHT22;5241;47.830;12.972;2022-12-10T17:26:34;0.90;99.90
10390;DHT22;5241;47.830;12.972;2022-12-10T17:29:05;0.90;99.90
10390;DHT22;5241;47.830;12.972;2022-12-10T17:31:31;0.90;99.90
10390;DHT22;5241;47.830;12.972;2022-12-10T17:33:57;0.90;99.90
10390;DHT22;5241;47.830;12.972;2022-12-10T17:36:22;0.90;99.90
10390;DHT22;5241;47.830;12.972;2022-12-10T17:38:48;0.90;99.90
10390;DHT22;5241;47.830;12.972;2022-12-10T17:41:13;0.90;99.90
10390;DHT22;5241;47.830;12.972;2022-12-10T17:43:41;0.90;99.90
10390;DHT22;5241;47.830;12.972;2022-12-10T17:46:10;0.90;99.90
10390;DHT22;5241;47.830;12.972;2022-12-10T17:48:36;1.00;99.90
10390;DHT22;5241;47.830;12.972;2022-12-10T17:51:02;1.00;99.90
10390;DHT22;5241;47.830;12.972;2022-12-10T17:53:28;0.90;99.90
10390;DHT22;5241;47.830;12.972;2022-12-10T17:55:57;0.90;99.90
10390;DHT22;5241;47.830;12.972;2022-12-10T17:58:24;0.90;99.90
10390;DHT22;5241;47.830;12.972;2022-12-10T18:00:50;0.90;99.90
10390;DHT22;5241;47.830;12.972;2022-12-10T18:03:17;0.90;99.90
10390;DHT22;5241;47.830;12.972;2022-12-10T18:05:42;0.90;99.90
10390;DHT22;5241;47.830;12.972;2022-12-10T18:08:12;0.90;99.90
10390;DHT22;5241;47.830;12.972;2022-12-10T18:10:38;0.90;99.90
10390;DHT22;5241;47.830;12.972;2022-12-10T18:13:04;0.90;99.90
10390;DHT22;5241;47.830;12.972;2022-12-10T18:15:30;0.90;99.90